Overview Statistics Trail Chart Weather Telemetry Raw packets
 

This is the latest recevied weather packets stored in our database for station/object WA5TET. If no packets are shown the sender has not sent any weather packets the latest 10 day(s).

<< 100 101 102 103 104 105 106 >>
Time Temp. Humidity Pressure Rain* Wind** Luminosity Snow
1787860787 38.33° C 31% 1013.3 hPa 0 mm - 857 W/m² -
1787860483 38.33° C 30% 1013.4 hPa 0 mm - 744 W/m² -
1787860182 38.89° C 32% 1013.4 hPa 0 mm - 898 W/m² -
1787859878 38.89° C 32% 1013.4 hPa 0 mm - 902 W/m² -
1787859573 38.89° C 34% 1013.6 hPa 0 mm - 984 W/m² -
1787859273 38.89° C 32% 1013.7 hPa 0 mm - 918 W/m² -
1787858970 37.78° C 34% 1013.6 hPa 0 mm - 933 W/m² -
1787858665 37.78° C 34% 1013.8 hPa 0 mm - 1014 W/m² -
1787858360 38.33° C 34% 1013.7 hPa 0 mm - 1036 W/m² -
1787858056 38.33° C 35% 1013.8 hPa 0 mm - 1018 W/m² -
1787857751 38.89° C 34% 1014.1 hPa 0 mm - 946 W/m² -
1787857447 37.78° C 38% 1014 hPa 0 mm - 1063 W/m² -
1787857144 37.78° C 36% 1014.1 hPa 0 mm - 939 W/m² -
1787856840 37.78° C 35% 1014.1 hPa 0 mm - 796 W/m² -
1787856539 37.22° C 38% 1014.3 hPa 0 mm - 1115 W/m² -
1787856235 37.22° C 37% 1014.3 hPa 0 mm - 932 W/m² -
1787855930 36.67° C 39% 1014.4 hPa 0 mm - 969 W/m² -
1787855629 37.22° C 37% 1014.3 hPa 0 mm - 940 W/m² -
1787855325 37.22° C 41% 1014.5 hPa 0 mm - 1040 W/m² -
1787855020 37.22° C 39% 1014.5 hPa 0 mm - 1014 W/m² -
1787854716 37.22° C 38% 1014.6 hPa 0 mm - 1005 W/m² -
1787854415 36.67° C 38% 1014.6 hPa 0 mm - 1004 W/m² -
1787854115 36.67° C 40% 1014.5 hPa 0 mm - 1000 W/m² -
1787853809 36.67° C 39% 1014.5 hPa 0 mm - 986 W/m² -
1787853508 36.67° C 40% 1014.6 hPa 0 mm - 991 W/m² -

* Rain latest hour (hover to see other rain measurements)
** Current wind speed in m/s (hover to see current wind gust speed)